createdAt,value
2018-06-27T00:01:51.720Z,85.30
2018-06-27T00:04:19.900Z,85.20
2018-06-27T00:06:48.132Z,85.00
2018-06-27T00:09:16.341Z,84.70
2018-06-27T00:11:44.560Z,84.30
2018-06-27T00:14:12.797Z,84.70
2018-06-27T00:16:41.069Z,84.60
2018-06-27T00:19:09.395Z,85.60
2018-06-27T00:21:37.641Z,85.80
2018-06-27T00:24:05.888Z,86.10
2018-06-27T00:26:34.092Z,86.40
2018-06-27T00:29:02.344Z,86.80
2018-06-27T00:31:30.581Z,86.20
2018-06-27T00:33:58.948Z,86.20
2018-06-27T00:36:27.013Z,87.00
2018-06-27T00:38:55.277Z,87.00
2018-06-27T00:41:23.670Z,87.20
2018-06-27T00:43:51.853Z,87.70
2018-06-27T00:46:20.098Z,87.60
2018-06-27T00:48:48.326Z,87.00
2018-06-27T00:51:16.541Z,86.90
2018-06-27T00:53:50.325Z,87.10
2018-06-27T00:56:18.516Z,86.90
2018-06-27T00:58:46.692Z,86.40
2018-06-27T01:01:14.922Z,86.70
2018-06-27T01:03:43.125Z,87.00
2018-06-27T01:06:11.318Z,86.10
2018-06-27T01:08:39.554Z,86.80
2018-06-27T01:11:07.865Z,86.50
2018-06-27T01:13:36.136Z,86.40
2018-06-27T01:16:04.595Z,87.10
2018-06-27T01:18:32.825Z,87.20
2018-06-27T01:21:01.033Z,86.90
2018-06-27T01:23:29.261Z,86.50
2018-06-27T01:25:57.486Z,86.40
2018-06-27T01:28:25.665Z,86.00
2018-06-27T01:30:53.940Z,86.80
2018-06-27T01:33:22.147Z,87.10
2018-06-27T01:35:50.381Z,88.10
2018-06-27T01:38:18.609Z,88.40
2018-06-27T01:40:46.817Z,88.70
2018-06-27T01:43:15.010Z,88.40
2018-06-27T01:45:43.244Z,87.90
2018-06-27T01:48:11.476Z,88.30
2018-06-27T01:50:39.653Z,88.10
2018-06-27T01:53:07.904Z,87.80
2018-06-27T01:55:36.116Z,87.60
2018-06-27T01:58:04.353Z,87.40
2018-06-27T02:00:32.570Z,87.10
2018-06-27T02:03:00.773Z,86.70
2018-06-27T02:05:28.952Z,86.60
2018-06-27T02:07:57.168Z,86.30
2018-06-27T02:10:25.406Z,86.50
2018-06-27T02:12:53.673Z,86.00
2018-06-27T02:15:21.977Z,86.20
2018-06-27T02:17:50.288Z,87.10
2018-06-27T02:20:18.512Z,87.00
2018-06-27T02:22:46.753Z,87.60
2018-06-27T02:25:15.022Z,87.60
2018-06-27T02:27:43.204Z,87.50
2018-06-27T02:30:11.716Z,87.60
2018-06-27T02:32:39.953Z,88.20
2018-06-27T02:35:08.236Z,88.10
2018-06-27T02:37:36.439Z,87.90
2018-06-27T02:40:04.737Z,88.30
2018-06-27T02:42:32.925Z,89.30
2018-06-27T02:45:01.162Z,88.50
2018-06-27T02:47:29.388Z,88.20
2018-06-27T02:49:57.565Z,89.00
2018-06-27T02:52:25.767Z,88.60
2018-06-27T02:54:54.001Z,88.40
2018-06-27T02:57:22.190Z,87.50
2018-06-27T02:59:50.413Z,88.10
2018-06-27T03:02:18.643Z,88.20
2018-06-27T03:04:46.825Z,88.30
2018-06-27T03:07:15.077Z,88.20
2018-06-27T03:09:43.312Z,87.50
2018-06-27T03:12:11.473Z,89.10
2018-06-27T03:14:40.579Z,90.00
2018-06-27T03:17:08.792Z,90.70
2018-06-27T03:19:36.980Z,90.40
2018-06-27T03:22:05.341Z,90.30
2018-06-27T03:24:33.549Z,91.00
2018-06-27T03:27:01.708Z,90.90
2018-06-27T03:29:29.954Z,90.10
2018-06-27T03:31:58.156Z,89.70
2018-06-27T03:34:26.330Z,89.70
2018-06-27T03:36:54.537Z,89.90
2018-06-27T03:39:22.753Z,88.80
2018-06-27T03:41:50.941Z,89.40
2018-06-27T03:44:19.169Z,89.20
2018-06-27T03:46:47.411Z,88.60
2018-06-27T03:49:15.597Z,89.70
2018-06-27T03:51:43.837Z,90.00
2018-06-27T03:54:12.069Z,90.10
2018-06-27T03:56:40.257Z,90.90
2018-06-27T03:59:08.555Z,91.60
2018-06-27T04:01:36.736Z,90.80
2018-06-27T04:04:05.066Z,91.10
2018-06-27T04:06:33.273Z,92.10
2018-06-27T04:09:01.490Z,92.30
2018-06-27T04:11:29.656Z,92.10
2018-06-27T04:13:57.889Z,92.20
2018-06-27T04:16:26.133Z,91.00
2018-06-27T04:18:54.295Z,90.60
2018-06-27T04:23:50.581Z,90.30
2018-06-27T04:26:18.783Z,90.30
2018-06-27T04:28:48.077Z,90.80
2018-06-27T04:31:16.317Z,90.90
2018-06-27T04:33:44.493Z,90.40
2018-06-27T04:36:12.811Z,91.30
2018-06-27T04:38:40.913Z,92.00
2018-06-27T04:43:37.050Z,92.80
2018-06-27T04:46:05.332Z,92.60
2018-06-27T04:48:33.514Z,92.50
2018-06-27T04:51:01.738Z,92.40
2018-06-27T04:53:29.941Z,91.50
2018-06-27T04:55:58.189Z,90.70
2018-06-27T04:58:26.413Z,90.80
2018-06-27T05:00:54.687Z,90.10
2018-06-27T05:03:22.897Z,89.80
2018-06-27T05:05:51.129Z,89.40
2018-06-27T05:08:19.361Z,88.70
2018-06-27T05:10:47.591Z,88.30
2018-06-27T05:13:16.291Z,88.10
2018-06-27T05:15:45.003Z,88.40
2018-06-27T05:18:13.645Z,87.50
2018-06-27T05:20:42.469Z,87.10
2018-06-27T05:23:11.310Z,87.00
2018-06-27T05:25:39.525Z,86.00
2018-06-27T05:28:07.727Z,85.70
2018-06-27T05:30:35.938Z,85.00
2018-06-27T05:33:04.150Z,84.10
2018-06-27T05:35:32.381Z,82.70
2018-06-27T05:38:00.704Z,81.10
2018-06-27T05:40:28.928Z,81.60
2018-06-27T05:42:57.160Z,81.20
2018-06-27T05:45:25.402Z,79.70
2018-06-27T05:47:53.585Z,81.60
2018-06-27T05:50:21.802Z,81.20
2018-06-27T05:52:50.000Z,82.30
2018-06-27T05:55:18.173Z,82.80
2018-06-27T05:57:46.382Z,82.50
2018-06-27T06:00:14.613Z,83.30
2018-06-27T06:02:42.797Z,84.30
2018-06-27T06:05:11.012Z,82.80
2018-06-27T06:07:39.254Z,83.20
2018-06-27T06:10:07.476Z,82.10
2018-06-27T06:12:35.676Z,82.60
2018-06-27T06:15:04.286Z,82.70
2018-06-27T06:17:32.505Z,81.10
2018-06-27T06:20:00.714Z,81.20
2018-06-27T06:22:28.952Z,81.50
2018-06-27T06:24:57.210Z,80.80
2018-06-27T06:27:25.390Z,80.90
2018-06-27T06:29:53.604Z,80.00
2018-06-27T06:32:21.835Z,80.00
2018-06-27T06:34:50.054Z,77.30
2018-06-27T06:37:18.294Z,75.70
2018-06-27T06:39:46.513Z,75.40
2018-06-27T06:44:42.656Z,76.30
2018-06-27T06:47:10.903Z,76.90
2018-06-27T06:49:39.124Z,76.70
2018-06-27T06:52:07.357Z,76.20
2018-06-27T06:54:35.588Z,76.70
2018-06-27T06:57:03.794Z,76.00
2018-06-27T06:59:32.017Z,76.50
2018-06-27T07:02:00.233Z,77.40
2018-06-27T07:04:28.464Z,77.90
2018-06-27T07:06:56.691Z,77.60
2018-06-27T07:09:24.908Z,78.10
2018-06-27T07:11:53.137Z,78.80
2018-06-27T07:14:21.377Z,78.80
2018-06-27T07:16:49.629Z,77.70
2018-06-27T07:19:17.849Z,77.00
2018-06-27T07:21:46.167Z,77.60
2018-06-27T07:24:14.393Z,77.90
2018-06-27T07:26:42.646Z,78.50
2018-06-27T07:31:38.881Z,78.80
2018-06-27T07:34:07.098Z,78.80
2018-06-27T07:36:35.338Z,78.40
2018-06-27T07:39:06.236Z,78.30
2018-06-27T07:41:34.462Z,78.30
2018-06-27T07:44:02.729Z,78.60
2018-06-27T07:46:30.925Z,76.40
2018-06-27T07:48:59.163Z,74.10
2018-06-27T07:51:27.417Z,74.40
2018-06-27T07:53:55.636Z,74.40
2018-06-27T07:56:24.499Z,73.50
2018-06-27T07:58:52.797Z,72.20
2018-06-27T08:01:21.020Z,71.30
2018-06-27T08:03:49.219Z,73.10
2018-06-27T08:06:17.425Z,72.80
2018-06-27T08:08:45.629Z,73.10
2018-06-27T08:11:13.940Z,71.40
2018-06-27T08:13:42.149Z,72.10
2018-06-27T08:16:10.337Z,70.80
2018-06-27T08:18:42.662Z,71.90
2018-06-27T08:21:11.137Z,71.50
2018-06-27T08:23:39.425Z,73.10
2018-06-27T08:26:07.833Z,74.40
2018-06-27T08:28:36.034Z,74.10
2018-06-27T08:31:04.239Z,73.50
2018-06-27T08:33:32.493Z,72.80
2018-06-27T08:36:00.773Z,70.30
2018-06-27T08:38:28.990Z,71.00
2018-06-27T08:40:57.284Z,69.50
2018-06-27T08:43:25.844Z,71.20
2018-06-27T08:45:54.068Z,70.80
2018-06-27T08:48:23.365Z,68.70
2018-06-27T08:50:51.593Z,70.20
2018-06-27T08:53:20.006Z,70.20
2018-06-27T08:55:48.269Z,69.60
2018-06-27T08:58:16.506Z,69.60
2018-06-27T09:00:44.705Z,69.10
2018-06-27T09:03:12.934Z,68.60
2018-06-27T09:05:41.148Z,68.30
2018-06-27T09:08:09.375Z,66.30
2018-06-27T09:10:37.612Z,67.80
2018-06-27T09:13:05.878Z,68.80
2018-06-27T09:15:34.089Z,67.10
2018-06-27T09:18:02.314Z,68.00
2018-06-27T09:20:30.582Z,69.10
2018-06-27T09:22:58.813Z,69.20
2018-06-27T09:25:27.058Z,70.40
2018-06-27T09:27:55.654Z,72.00
2018-06-27T09:30:23.875Z,69.80
2018-06-27T09:32:52.149Z,70.70
2018-06-27T09:35:20.551Z,72.90
2018-06-27T09:37:48.833Z,73.40
2018-06-27T09:40:17.201Z,74.90
2018-06-27T09:42:45.446Z,74.60
2018-06-27T09:45:13.933Z,75.10
2018-06-27T09:47:42.152Z,71.50
2018-06-27T09:50:10.396Z,69.50
2018-06-27T09:52:38.661Z,67.90
2018-06-27T09:55:07.041Z,64.50
2018-06-27T09:57:35.254Z,66.00
2018-06-27T10:00:03.698Z,66.80
2018-06-27T10:02:32.016Z,66.20
2018-06-27T10:05:00.287Z,67.30
2018-06-27T10:07:28.481Z,66.60
2018-06-27T10:09:56.690Z,65.50
2018-06-27T10:12:24.896Z,65.70
2018-06-27T10:14:53.126Z,65.40
2018-06-27T10:17:21.508Z,64.30
2018-06-27T10:19:49.861Z,62.80
2018-06-27T10:22:18.564Z,62.00
2018-06-27T10:24:46.865Z,63.10
2018-06-27T10:27:15.276Z,62.30
2018-06-27T10:29:43.561Z,64.00
2018-06-27T10:32:11.865Z,62.90
2018-06-27T10:34:40.148Z,61.40
2018-06-27T10:37:08.425Z,61.40
2018-06-27T10:39:36.629Z,62.40
2018-06-27T10:42:05.269Z,62.90
2018-06-27T10:44:33.497Z,62.90
2018-06-27T10:47:01.870Z,62.30
2018-06-27T10:49:30.465Z,63.40
2018-06-27T10:51:58.802Z,62.70
2018-06-27T10:54:27.181Z,63.00
2018-06-27T10:56:55.405Z,61.10
2018-06-27T10:59:23.799Z,63.30
2018-06-27T11:01:52.129Z,64.20
2018-06-27T11:04:21.099Z,63.70
2018-06-27T11:06:49.312Z,64.40
2018-06-27T11:11:45.801Z,67.00
2018-06-27T11:14:14.258Z,67.50
2018-06-27T11:16:42.493Z,66.40
2018-06-27T11:19:10.729Z,65.10
2018-06-27T11:21:38.933Z,64.10
2018-06-27T11:24:07.173Z,64.60
2018-06-27T11:26:35.422Z,63.10
2018-06-27T11:29:03.794Z,59.40
2018-06-27T11:31:32.062Z,60.00
2018-06-27T11:34:00.305Z,61.30
2018-06-27T11:36:28.505Z,61.00
2018-06-27T11:38:56.737Z,59.50
2018-06-27T11:41:25.005Z,60.50
2018-06-27T11:43:53.449Z,58.90
2018-06-27T11:46:21.693Z,58.40
2018-06-27T11:48:50.316Z,58.20
2018-06-27T11:51:18.481Z,58.20
2018-06-27T11:53:46.674Z,56.80
2018-06-27T11:56:15.636Z,56.70
2018-06-27T11:58:43.869Z,58.10
2018-06-27T12:01:12.145Z,56.70
2018-06-27T12:03:40.388Z,56.80
2018-06-27T12:06:08.603Z,60.50
2018-06-27T12:08:36.806Z,59.10
2018-06-27T12:11:05.069Z,61.30
2018-06-27T12:13:33.364Z,62.10
2018-06-27T12:16:01.729Z,61.90
2018-06-27T12:18:30.002Z,61.00
2018-06-27T12:20:58.341Z,60.60
2018-06-27T12:23:26.686Z,62.40
2018-06-27T12:25:55.241Z,62.60
2018-06-27T12:28:23.593Z,62.30
2018-06-27T12:30:52.457Z,63.00
2018-06-27T12:33:20.817Z,63.50
2018-06-27T12:35:49.000Z,63.40
2018-06-27T12:38:17.401Z,63.20
2018-06-27T12:40:45.853Z,63.10
2018-06-27T12:43:14.085Z,63.90
2018-06-27T12:45:42.323Z,64.40
2018-06-27T12:48:10.589Z,64.10
2018-06-27T12:50:38.830Z,64.50
2018-06-27T12:53:07.101Z,64.20
2018-06-27T12:55:35.321Z,63.30
2018-06-27T12:58:03.550Z,61.80
2018-06-27T13:00:31.864Z,61.30
2018-06-27T13:03:00.065Z,61.80
2018-06-27T13:05:28.314Z,60.90
2018-06-27T13:07:56.542Z,60.70
2018-06-27T13:10:24.741Z,59.70
2018-06-27T13:12:52.973Z,59.60
2018-06-27T13:15:21.189Z,58.80
2018-06-27T13:17:49.394Z,59.60
2018-06-27T13:20:17.593Z,60.30
2018-06-27T13:22:45.782Z,61.00
2018-06-27T13:25:14.000Z,60.50
2018-06-27T13:27:42.186Z,61.30
2018-06-27T13:30:11.046Z,61.00
2018-06-27T13:32:39.275Z,59.60
2018-06-27T13:35:07.524Z,57.80
2018-06-27T13:37:35.771Z,56.30
2018-06-27T13:40:04.177Z,56.30
2018-06-27T13:42:32.415Z,56.80
2018-06-27T13:45:00.834Z,56.30
2018-06-27T13:47:29.052Z,56.90
2018-06-27T13:49:57.278Z,57.80
2018-06-27T13:52:25.478Z,57.00
2018-06-27T13:54:54.549Z,56.10
2018-06-27T13:57:23.501Z,56.00
2018-06-27T13:59:51.802Z,60.20
2018-06-27T14:02:20.435Z,64.10
2018-06-27T14:04:48.885Z,64.60
2018-06-27T14:07:17.128Z,64.80
2018-06-27T14:09:45.378Z,60.40
2018-06-27T14:12:13.561Z,58.30
2018-06-27T14:14:41.779Z,58.60
2018-06-27T14:17:10.006Z,59.40
2018-06-27T14:19:38.213Z,60.10
2018-06-27T14:22:07.238Z,61.90
2018-06-27T14:24:35.949Z,60.90
2018-06-27T14:27:04.185Z,62.50
2018-06-27T14:29:32.441Z,63.30
2018-06-27T14:32:00.680Z,60.70
2018-06-27T14:34:28.892Z,60.80
2018-06-27T14:36:57.120Z,62.90
2018-06-27T14:39:25.400Z,61.70
2018-06-27T14:41:53.615Z,60.80
2018-06-27T14:44:21.862Z,59.30
2018-06-27T14:46:53.190Z,57.00
2018-06-27T14:49:21.444Z,56.70
2018-06-27T14:51:49.673Z,54.90
2018-06-27T14:54:17.897Z,55.90
2018-06-27T14:56:46.151Z,55.60
2018-06-27T14:59:15.324Z,54.80
2018-06-27T15:01:43.520Z,54.80
2018-06-27T15:04:11.742Z,53.60
2018-06-27T15:06:39.965Z,54.30
2018-06-27T15:09:09.178Z,56.00
2018-06-27T15:11:37.414Z,57.10
2018-06-27T15:14:05.689Z,58.40
2018-06-27T15:16:34.260Z,60.30
2018-06-27T15:19:02.474Z,62.30
2018-06-27T15:21:30.718Z,63.30
2018-06-27T15:23:58.954Z,62.80
2018-06-27T15:26:27.207Z,62.70
2018-06-27T15:28:55.498Z,63.90
2018-06-27T15:31:24.065Z,64.30
2018-06-27T15:33:52.319Z,65.00
2018-06-27T15:36:20.609Z,65.30
2018-06-27T15:38:48.821Z,65.70
2018-06-27T15:41:17.101Z,65.80
2018-06-27T15:43:45.333Z,66.20
2018-06-27T15:46:13.525Z,65.60
2018-06-27T15:48:41.797Z,66.70
2018-06-27T15:51:10.125Z,65.60
2018-06-27T15:53:38.356Z,66.30
2018-06-27T15:56:06.625Z,64.00
2018-06-27T15:58:34.853Z,63.30
2018-06-27T16:01:03.080Z,64.00
2018-06-27T16:03:31.306Z,62.30
2018-06-27T16:05:59.512Z,62.60
2018-06-27T16:08:27.710Z,61.90
2018-06-27T16:10:56.123Z,62.70
2018-06-27T16:13:24.364Z,62.20
2018-06-27T16:15:52.557Z,61.30
2018-06-27T16:18:20.841Z,62.40
2018-06-27T16:20:49.188Z,64.00
2018-06-27T16:23:17.461Z,63.50
2018-06-27T16:25:45.691Z,63.90
2018-06-27T16:28:13.941Z,63.30
2018-06-27T16:30:42.173Z,62.40
2018-06-27T16:33:10.421Z,64.00
2018-06-27T16:35:38.681Z,62.10
2018-06-27T16:38:07.070Z,61.10
2018-06-27T16:40:35.332Z,62.70
2018-06-27T16:43:03.654Z,63.00
2018-06-27T16:45:31.911Z,61.80
2018-06-27T16:48:00.117Z,61.00
2018-06-27T16:50:28.394Z,59.60
2018-06-27T16:52:56.577Z,59.90
2018-06-27T16:55:24.942Z,60.10
2018-06-27T16:57:53.230Z,59.50
2018-06-27T17:00:21.438Z,60.30
2018-06-27T17:02:49.651Z,60.20
2018-06-27T17:05:17.853Z,59.50
2018-06-27T17:07:46.033Z,60.10
2018-06-27T17:10:14.293Z,59.60
2018-06-27T17:12:42.645Z,60.40
2018-06-27T17:15:10.885Z,59.80
2018-06-27T17:17:39.912Z,59.50
2018-06-27T17:20:08.189Z,59.40
2018-06-27T17:22:36.393Z,59.00
2018-06-27T17:25:04.724Z,59.00
2018-06-27T17:27:32.966Z,58.80
2018-06-27T17:30:01.211Z,59.00
2018-06-27T17:32:29.458Z,58.90
2018-06-27T17:34:57.706Z,64.00
2018-06-27T17:37:25.904Z,67.70
2018-06-27T17:39:54.174Z,68.50
2018-06-27T17:42:22.469Z,68.70
2018-06-27T17:44:50.794Z,68.20
2018-06-27T17:47:18.977Z,68.30
2018-06-27T17:49:47.290Z,68.20
2018-06-27T17:52:15.502Z,68.10
2018-06-27T17:54:43.721Z,67.70
2018-06-27T17:57:12.089Z,68.40
2018-06-27T17:59:40.414Z,68.20
2018-06-27T18:02:08.697Z,68.80
2018-06-27T18:04:37.014Z,69.00
2018-06-27T18:07:05.398Z,68.80
2018-06-27T18:09:33.635Z,69.30
2018-06-27T18:12:01.935Z,69.50
2018-06-27T18:14:30.222Z,69.70
2018-06-27T18:16:58.490Z,69.60
2018-06-27T18:19:26.721Z,69.60
2018-06-27T18:21:54.923Z,70.20
2018-06-27T18:24:23.170Z,70.30
2018-06-27T18:26:51.414Z,69.50
2018-06-27T18:29:19.669Z,70.50
2018-06-27T18:31:47.939Z,69.50
2018-06-27T18:34:16.188Z,69.90
2018-06-27T18:36:44.554Z,69.40
2018-06-27T18:39:12.821Z,69.70
2018-06-27T18:41:41.093Z,71.00
2018-06-27T18:44:09.557Z,71.60
2018-06-27T18:46:38.226Z,71.80
2018-06-27T18:49:06.748Z,71.40
2018-06-27T18:51:35.164Z,72.00
2018-06-27T18:54:03.643Z,71.80
2018-06-27T18:56:31.920Z,72.40
2018-06-27T18:59:00.205Z,72.70
2018-06-27T19:01:28.985Z,73.10
2018-06-27T19:03:57.321Z,73.50
2018-06-27T19:06:25.533Z,73.60
2018-06-27T19:08:53.776Z,73.50
2018-06-27T19:11:22.011Z,74.70
2018-06-27T19:13:50.224Z,75.10
2018-06-27T19:16:18.437Z,74.60
2018-06-27T19:18:47.088Z,74.80
2018-06-27T19:21:15.377Z,74.80
2018-06-27T19:23:43.609Z,74.30
2018-06-27T19:26:11.842Z,74.00
2018-06-27T19:28:40.302Z,73.30
2018-06-27T19:31:08.546Z,74.10
2018-06-27T19:33:36.787Z,74.30
2018-06-27T19:36:05.074Z,74.00
2018-06-27T19:38:33.921Z,74.40
2018-06-27T19:41:02.323Z,74.50
2018-06-27T19:43:30.508Z,74.80
2018-06-27T19:45:58.785Z,75.70
2018-06-27T19:48:27.081Z,75.40
2018-06-27T19:50:55.391Z,76.40
2018-06-27T19:53:23.610Z,76.60
2018-06-27T19:55:52.202Z,76.10
2018-06-27T19:58:20.487Z,76.40
2018-06-27T20:00:48.746Z,77.00
2018-06-27T20:03:17.028Z,76.50
2018-06-27T20:05:45.236Z,76.40
2018-06-27T20:08:13.549Z,76.00
2018-06-27T20:10:41.845Z,75.70
2018-06-27T20:13:10.178Z,75.80
2018-06-27T20:15:38.445Z,76.40
2018-06-27T20:18:06.791Z,77.20
2018-06-27T20:20:35.047Z,77.90
2018-06-27T20:23:03.379Z,77.90
2018-06-27T20:25:31.690Z,77.40
2018-06-27T20:27:59.926Z,77.70
2018-06-27T20:30:28.317Z,76.80
2018-06-27T20:32:56.608Z,77.00
2018-06-27T20:35:24.866Z,78.00
2018-06-27T20:37:53.097Z,78.20
2018-06-27T20:40:21.345Z,78.70
2018-06-27T20:42:49.507Z,78.70
2018-06-27T20:45:18.246Z,78.70
2018-06-27T20:47:46.963Z,78.40
2018-06-27T20:50:15.957Z,78.50
2018-06-27T20:52:44.661Z,78.30
2018-06-27T20:55:13.418Z,78.70
2018-06-27T20:57:42.107Z,78.80
2018-06-27T21:00:10.873Z,79.00
2018-06-27T21:02:39.545Z,79.00
2018-06-27T21:05:08.210Z,79.20
2018-06-27T21:07:36.961Z,79.80
2018-06-27T21:10:05.547Z,80.80
2018-06-27T21:12:33.758Z,81.00
2018-06-27T21:15:02.071Z,81.20
2018-06-27T21:17:30.277Z,81.20
2018-06-27T21:19:58.529Z,81.30
2018-06-27T21:22:26.749Z,81.40
2018-06-27T21:24:54.988Z,81.80
2018-06-27T21:27:23.165Z,82.30
2018-06-27T21:29:51.447Z,81.40
2018-06-27T21:32:19.765Z,81.90
2018-06-27T21:34:47.989Z,81.20
2018-06-27T21:37:16.270Z,81.30
2018-06-27T21:39:44.549Z,81.60
2018-06-27T21:42:12.754Z,81.80
2018-06-27T21:44:40.981Z,81.80
2018-06-27T21:47:09.222Z,82.20
2018-06-27T21:49:37.402Z,82.50
2018-06-27T21:52:05.722Z,81.60
2018-06-27T21:54:34.135Z,82.10
2018-06-27T21:57:02.413Z,81.90
2018-06-27T21:59:30.656Z,82.80
2018-06-27T22:01:58.957Z,82.20
2018-06-27T22:04:27.223Z,82.50
2018-06-27T22:06:55.474Z,82.10
2018-06-27T22:09:23.705Z,82.60
2018-06-27T22:11:51.897Z,83.50
2018-06-27T22:14:20.125Z,83.80
2018-06-27T22:16:48.362Z,84.20
2018-06-27T22:19:16.613Z,84.10
2018-06-27T22:21:44.947Z,83.80
2018-06-27T22:24:13.117Z,83.60
2018-06-27T22:26:41.318Z,83.40
2018-06-27T22:29:09.537Z,83.40
2018-06-27T22:31:37.769Z,83.00
2018-06-27T22:34:06.001Z,83.50
2018-06-27T22:36:34.226Z,84.10
2018-06-27T22:39:02.557Z,84.40
2018-06-27T22:41:30.782Z,84.80
2018-06-27T22:43:59.078Z,84.90
2018-06-27T22:46:27.300Z,84.80
2018-06-27T22:48:55.575Z,84.30
2018-06-27T22:51:23.797Z,83.50
2018-06-27T22:53:52.053Z,83.10
2018-06-27T22:56:20.251Z,83.70
2018-06-27T22:58:48.511Z,83.50
2018-06-27T23:01:16.710Z,84.00
2018-06-27T23:03:44.935Z,82.80
2018-06-27T23:06:13.165Z,83.40
2018-06-27T23:08:41.449Z,82.50
2018-06-27T23:11:09.680Z,83.50
2018-06-27T23:13:37.937Z,85.00
2018-06-27T23:16:06.397Z,85.70
2018-06-27T23:18:34.857Z,85.90
2018-06-27T23:21:03.191Z,85.50
2018-06-27T23:23:31.401Z,85.90
2018-06-27T23:25:59.727Z,86.00
2018-06-27T23:28:27.945Z,86.50
2018-06-27T23:30:56.227Z,85.70
2018-06-27T23:33:24.493Z,85.30
2018-06-27T23:35:52.757Z,84.50
2018-06-27T23:38:21.053Z,85.00
2018-06-27T23:40:49.261Z,84.30
2018-06-27T23:43:17.581Z,84.00
2018-06-27T23:45:45.828Z,84.60
2018-06-27T23:48:14.002Z,85.30
2018-06-27T23:50:42.264Z,85.10
2018-06-27T23:53:10.490Z,84.90
2018-06-27T23:55:38.878Z,85.30
2018-06-27T23:58:07.278Z,84.50
